createdAt,value
2022-08-05T00:01:28.472Z,19.01
2022-08-05T00:06:33.517Z,18.89
2022-08-05T00:11:48.457Z,18.81
2022-08-05T00:16:54.015Z,18.72
2022-08-05T00:21:57.443Z,18.63
2022-08-05T00:27:01.369Z,18.55
2022-08-05T00:32:15.391Z,18.49
2022-08-05T00:37:19.185Z,18.44
2022-08-05T00:42:32.504Z,18.43
2022-08-05T00:47:56.624Z,18.41
2022-08-05T00:53:00.417Z,18.38
2022-08-05T00:58:04.961Z,18.44
2022-08-05T01:03:08.261Z,18.42
2022-08-05T01:08:39.899Z,18.43
2022-08-05T01:13:57.527Z,18.38
2022-08-05T01:19:20.566Z,18.34
2022-08-05T01:24:45.789Z,18.28
2022-08-05T01:29:53.094Z,18.24
2022-08-05T01:35:02.958Z,18.18
2022-08-05T01:40:17.890Z,18.14
2022-08-05T01:45:22.739Z,18.10
2022-08-05T01:50:29.759Z,18.02
2022-08-05T01:55:36.256Z,17.99
2022-08-05T02:00:44.702Z,17.96
2022-08-05T02:05:49.309Z,17.89
2022-08-05T02:11:03.815Z,17.80
2022-08-05T02:16:16.452Z,17.70
2022-08-05T02:21:25.695Z,17.63
2022-08-05T02:26:39.655Z,17.59
2022-08-05T02:31:58.741Z,17.56
2022-08-05T02:37:10.706Z,17.53
2022-08-05T02:42:25.635Z,17.50
2022-08-05T02:47:36.569Z,17.47
2022-08-05T02:52:57.806Z,17.44
2022-08-05T02:58:10.668Z,17.37
2022-08-05T03:03:20.757Z,17.34
2022-08-05T03:08:29.821Z,17.32
2022-08-05T03:13:51.915Z,17.36
2022-08-05T03:18:56.701Z,17.48
2022-08-05T03:24:01.007Z,17.54
2022-08-05T03:29:05.984Z,17.61
2022-08-05T03:34:16.160Z,17.67
2022-08-05T03:39:27.198Z,17.79
2022-08-05T03:44:31.278Z,17.91
2022-08-05T03:49:52.033Z,18.01
2022-08-05T03:56:03.615Z,18.14
2022-08-05T04:00:29.785Z,18.27
2022-08-05T04:05:36.745Z,18.40
2022-08-05T04:10:45.542Z,18.53
2022-08-05T04:15:52.702Z,18.66
2022-08-05T04:21:08.082Z,18.81
2022-08-05T04:26:15.797Z,18.95
2022-08-05T04:31:20.946Z,19.12
2022-08-05T04:36:46.304Z,19.26
2022-08-05T04:41:48.542Z,19.43
2022-08-05T04:46:54.431Z,19.60
2022-08-05T04:52:00.162Z,19.80
2022-08-05T04:57:04.535Z,20.03
2022-08-05T05:02:37.593Z,20.30
2022-08-05T05:07:35.243Z,20.60
2022-08-05T05:12:39.044Z,20.87
2022-08-05T05:17:56.460Z,21.12
2022-08-05T05:23:08.329Z,21.39
2022-08-05T05:28:24.921Z,21.66
2022-08-05T05:33:28.331Z,21.92
2022-08-05T05:38:47.315Z,22.18
2022-08-05T05:43:57.420Z,22.44
2022-08-05T05:49:06.595Z,22.71
2022-08-05T05:54:49.756Z,22.95
2022-08-05T05:59:50.421Z,23.13
2022-08-05T06:04:56.543Z,23.34
2022-08-05T06:10:04.708Z,23.57
2022-08-05T06:15:23.564Z,23.79
2022-08-05T06:20:28.049Z,24.02
2022-08-05T06:26:12.138Z,24.28
2022-08-05T06:30:55.354Z,24.53
2022-08-05T06:36:05.767Z,24.78
2022-08-05T06:41:13.231Z,25.03
2022-08-05T06:46:16.951Z,25.27
2022-08-05T06:51:26.617Z,25.48
2022-08-05T06:56:34.934Z,25.69
2022-08-05T07:01:40.776Z,25.90
2022-08-05T07:06:45.860Z,26.12
2022-08-05T07:11:57.018Z,26.30
2022-08-05T07:18:01.084Z,26.49
2022-08-05T07:22:32.660Z,26.70
2022-08-05T07:27:58.527Z,26.91
2022-08-05T07:32:59.351Z,27.09
2022-08-05T07:38:02.662Z,27.31
2022-08-05T07:43:14.794Z,27.48
2022-08-05T07:49:01.666Z,27.68
2022-08-05T07:53:50.292Z,27.90
2022-08-05T07:58:58.746Z,28.06
2022-08-05T08:04:03.452Z,28.22
2022-08-05T08:09:09.550Z,28.35
2022-08-05T08:14:18.272Z,28.42
2022-08-05T08:20:10.450Z,28.46
2022-08-05T08:24:51.803Z,28.59
2022-08-05T08:30:05.306Z,28.66
2022-08-05T08:35:20.940Z,28.77
2022-08-05T08:40:34.395Z,28.89
2022-08-05T08:45:40.085Z,29.01
2022-08-05T08:51:22.465Z,29.15
2022-08-05T08:56:08.823Z,29.23
2022-08-05T09:01:15.569Z,29.26
2022-08-05T09:06:24.219Z,29.27
2022-08-05T09:11:51.980Z,29.36
2022-08-05T09:16:57.682Z,29.45
2022-08-05T09:22:22.813Z,29.55
2022-08-05T09:28:04.480Z,29.62
2022-08-05T09:33:02.549Z,29.70
2022-08-05T09:38:12.391Z,29.79
2022-08-05T09:43:40.724Z,29.89
2022-08-05T09:49:03.696Z,30.03
2022-08-05T09:54:10.168Z,30.12
2022-08-05T09:59:17.117Z,30.19
2022-08-05T10:04:28.515Z,30.28
2022-08-05T10:09:45.225Z,30.42
2022-08-05T10:14:49.156Z,30.46
2022-08-05T10:20:04.076Z,30.50
2022-08-05T10:25:14.590Z,30.60
2022-08-05T10:31:20.301Z,30.73
2022-08-05T10:35:44.303Z,30.79
2022-08-05T10:40:52.271Z,30.86
2022-08-05T10:46:08.026Z,31.00
2022-08-05T10:51:21.777Z,31.14
2022-08-05T10:56:49.439Z,31.23
2022-08-05T11:02:34.510Z,31.26
2022-08-05T11:08:02.419Z,31.31
2022-08-05T11:13:01.278Z,31.37
2022-08-05T11:18:27.478Z,31.48
2022-08-05T11:24:05.750Z,31.54
2022-08-05T11:29:12.605Z,31.68
2022-08-05T11:34:37.658Z,31.79
2022-08-05T11:39:55.090Z,31.86
2022-08-05T11:45:05.553Z,31.94
2022-08-05T11:50:09.600Z,32.02
2022-08-05T11:55:17.431Z,32.09
2022-08-05T12:00:28.893Z,32.18
2022-08-05T12:05:39.815Z,32.25
2022-08-05T12:10:49.879Z,32.33
2022-08-05T12:15:56.168Z,32.50
2022-08-05T12:21:30.324Z,32.67
2022-08-05T12:26:44.062Z,32.87
2022-08-05T12:31:55.535Z,32.99
2022-08-05T12:37:10.919Z,33.25
2022-08-05T12:42:30.174Z,33.49
2022-08-05T12:47:35.577Z,33.64
2022-08-05T12:52:42.717Z,33.74
2022-08-05T12:58:52.494Z,33.97
2022-08-05T13:03:12.047Z,34.12
2022-08-05T13:08:18.742Z,34.22
2022-08-05T13:14:05.433Z,34.47
2022-08-05T13:18:58.616Z,34.85
2022-08-05T13:24:02.155Z,35.15
2022-08-05T13:29:07.635Z,35.26
2022-08-05T13:34:22.572Z,35.32
2022-08-05T13:40:13.446Z,35.43
2022-08-05T13:44:53.634Z,35.66
2022-08-05T13:49:58.973Z,35.89
2022-08-05T13:55:07.830Z,36.17
2022-08-05T14:00:13.492Z,36.31
2022-08-05T14:05:19.349Z,36.61
2022-08-05T14:10:30.658Z,37.03
2022-08-05T14:16:08.192Z,37.60
2022-08-05T14:21:00.243Z,39.54
2022-08-05T14:26:38.352Z,43.26
2022-08-05T14:32:02.558Z,46.60
2022-08-05T14:37:13.328Z,50.79
2022-08-05T14:42:20.735Z,54.36
2022-08-05T14:48:02.679Z,53.20
2022-08-05T14:52:57.813Z,52.43
2022-08-05T14:58:02.485Z,51.63
2022-08-05T15:03:15.729Z,51.36
2022-08-05T15:08:58.738Z,51.25
2022-08-05T15:13:45.961Z,52.48
2022-08-05T15:18:50.034Z,56.87
2022-08-05T15:23:55.905Z,56.88
2022-08-05T15:29:02.497Z,57.49
2022-08-05T15:34:31.445Z,60.34
2022-08-05T15:41:01.541Z,62.56
2022-08-05T15:44:55.091Z,63.68
2022-08-05T15:49:59.464Z,64.19
2022-08-05T15:55:04.006Z,64.52
2022-08-05T16:00:08.940Z,64.62
2022-08-05T16:05:12.262Z,64.58
2022-08-05T16:10:16.186Z,64.18
2022-08-05T16:15:32.382Z,62.24
2022-08-05T16:20:36.121Z,61.38
2022-08-05T16:25:40.456Z,58.41
2022-08-05T16:30:44.793Z,55.32
2022-08-05T16:35:52.783Z,56.60
2022-08-05T16:41:00.210Z,58.03
2022-08-05T16:46:24.570Z,58.24
2022-08-05T16:51:30.833Z,56.88
2022-08-05T16:56:46.299Z,56.18
2022-08-05T17:01:56.209Z,55.54
2022-08-05T17:07:03.450Z,54.29
2022-08-05T17:12:15.077Z,49.81
2022-08-05T17:17:19.796Z,46.20
2022-08-05T17:22:26.358Z,43.95
2022-08-05T17:27:34.252Z,44.80
2022-08-05T17:32:38.046Z,46.14
2022-08-05T17:37:48.459Z,46.61
2022-08-05T17:42:53.078Z,46.45
2022-08-05T17:47:56.990Z,45.72
2022-08-05T17:53:04.625Z,43.72
2022-08-05T17:58:12.311Z,41.80
2022-08-05T18:03:48.498Z,40.13
2022-08-05T18:08:45.003Z,37.95
2022-08-05T18:13:48.976Z,36.15
2022-08-05T18:18:52.388Z,34.71
2022-08-05T18:23:56.006Z,33.48
2022-08-05T18:29:01.268Z,32.43
2022-08-05T18:34:06.179Z,31.53
2022-08-05T18:39:42.435Z,30.70
2022-08-05T18:44:48.976Z,29.95
2022-08-05T18:50:15.468Z,29.27
2022-08-05T18:55:21.472Z,28.65
2022-08-05T19:00:28.746Z,28.13
2022-08-05T19:06:13.575Z,27.62
2022-08-05T19:10:59.723Z,27.18
2022-08-05T19:16:24.536Z,26.80
2022-08-05T19:21:34.730Z,26.43
2022-08-05T19:26:54.410Z,26.14
2022-08-05T19:31:59.032Z,25.89
2022-08-05T19:37:03.060Z,25.66
2022-08-05T19:42:09.332Z,25.45
2022-08-05T19:47:19.204Z,25.23
2022-08-05T19:52:31.684Z,25.06
2022-08-05T19:57:48.973Z,24.87
2022-08-05T20:03:00.985Z,24.70
2022-08-05T20:08:11.975Z,24.55
2022-08-05T20:13:54.526Z,24.41
2022-08-05T20:18:42.197Z,24.26
2022-08-05T20:23:53.168Z,24.10
2022-08-05T20:29:00.517Z,23.95
2022-08-05T20:34:04.677Z,23.83
2022-08-05T20:39:10.387Z,23.73
2022-08-05T20:44:30.566Z,23.66
2022-08-05T20:49:39.348Z,23.64
2022-08-05T20:54:59.219Z,23.63
2022-08-05T21:00:19.638Z,23.62
2022-08-05T21:05:47.971Z,23.64
2022-08-05T21:10:55.506Z,23.64
2022-08-05T21:16:01.845Z,23.65
2022-08-05T21:21:06.995Z,23.64
2022-08-05T21:26:15.048Z,23.66
2022-08-05T21:31:19.900Z,23.67
2022-08-05T21:36:29.726Z,23.67
2022-08-05T21:41:35.413Z,23.65
2022-08-05T21:46:39.423Z,23.60
2022-08-05T21:52:22.676Z,23.33
2022-08-05T21:57:30.790Z,23.27
2022-08-05T22:02:31.491Z,23.32
2022-08-05T22:07:40.262Z,23.26
2022-08-05T22:12:59.206Z,23.00
2022-08-05T22:18:14.333Z,22.79
2022-08-05T22:24:03.037Z,22.63
2022-08-05T22:28:59.724Z,22.49
2022-08-05T22:34:04.059Z,22.36
2022-08-05T22:39:09.467Z,22.26
2022-08-05T22:44:14.163Z,22.11
2022-08-05T22:50:17.442Z,21.96
2022-08-05T22:54:48.791Z,21.80
2022-08-05T22:59:54.294Z,21.75
2022-08-05T23:05:01.569Z,21.70
2022-08-05T23:10:08.861Z,21.63
2022-08-05T23:15:12.633Z,21.53
2022-08-05T23:20:17.424Z,21.43
2022-08-05T23:25:51.955Z,21.33
2022-08-05T23:30:53.031Z,21.27
2022-08-05T23:35:57.414Z,21.23
2022-08-05T23:41:00.522Z,21.20
2022-08-05T23:46:21.086Z,21.14
2022-08-05T23:51:25.165Z,21.04
2022-08-05T23:56:29.501Z,20.91
